Time;durP1;ratioP1;P1;durP2;ratioP2;P2;SDS_P1;SDS_P2;PMS_P1;PMS_P2;Temp;Humidity;BMP_temperature;BMP_pressure;BME280_temperature;BME280_humidity;BME280_pressure;Samples;Min_cycle;Max_cycle;Signal;HPM_P1;HPM_P2
2021/03/16 00:01:05;;;;;;;23.52;4.43;;;;;;;5.71;90.17;102283.50;4996040;28;20030;-72
2021/03/16 00:03:32;;;;;;;38.60;6.07;;;;;;;5.34;90.29;102225.53;4999097;28;20052;-72
2021/03/16 00:05:58;;;;;;;32.95;4.82;;;;;;;5.70;90.24;102282.66;4994936;28;20033;-72
2021/03/16 00:08:24;;;;;;;40.70;4.80;;;;;;;5.67;90.42;102285.47;4996171;28;20033;-72
2021/03/16 00:10:50;;;;;;;32.25;3.78;;;;;;;5.66;90.32;102279.34;4997078;28;20091;-73
2021/03/16 00:13:16;;;;;;;25.98;4.95;;;;;;;5.51;90.62;102264.31;4997271;28;20018;-72
2021/03/16 00:15:41;;;;;;;30.58;4.15;;;;;;;5.63;90.17;102283.97;4999566;28;20025;-70
2021/03/16 00:18:13;;;;;;;28.38;3.85;;;;;;;5.46;90.37;102267.22;4998385;28;20455;-69
2021/03/16 00:20:39;;;;;;;32.17;6.05;;;;;;;5.65;90.09;102301.47;5005057;28;20052;-69
2021/03/16 00:23:06;;;;;;;33.00;3.70;;;;;;;5.69;89.89;102298.66;5000177;28;20041;-70
2021/03/16 00:25:32;;;;;;;34.22;4.78;;;;;;;5.65;89.90;102303.25;4996236;28;20120;-69
2021/03/16 00:27:57;;;;;;;20.77;3.83;;;;;;;5.65;89.44;102295.31;4999718;28;20514;-72
2021/03/16 00:30:23;;;;;;;26.00;3.70;;;;;;;5.38;89.36;102242.94;4998311;28;20104;-72
2021/03/16 00:32:49;;;;;;;29.45;4.28;;;;;;;5.70;89.08;102311.81;5001464;28;20713;-72
2021/03/16 00:35:15;;;;;;;31.60;4.70;;;;;;;5.66;89.33;102311.13;5002671;28;20650;-72
2021/03/16 00:37:40;;;;;;;31.77;4.07;;;;;;;5.67;89.22;102306.66;5003875;28;20163;-72
2021/03/16 00:40:07;;;;;;;33.33;4.18;;;;;;;5.62;88.80;102317.53;4999891;28;20507;-72
2021/03/16 00:42:32;;;;;;;23.83;3.40;;;;;;;5.24;89.50;102242.84;5003470;28;20068;-72
2021/03/16 00:44:58;;;;;;;29.52;4.25;;;;;;;5.58;88.89;102300.09;5016568;28;20034;-72
2021/03/16 00:47:23;;;;;;;27.55;3.63;;;;;;;5.61;89.41;102301.72;5003368;28;20030;-72
2021/03/16 00:49:49;;;;;;;21.50;3.42;;;;;;;5.58;89.76;102305.38;5000546;28;20057;-73
2021/03/16 00:52:14;;;;;;;27.85;4.00;;;;;;;5.61;88.71;102307.88;5002900;28;20088;-72
2021/03/16 00:54:40;;;;;;;29.33;5.13;;;;;;;5.67;89.06;102311.97;5002258;28;20053;-72
2021/03/16 00:57:06;;;;;;;26.25;3.35;;;;;;;5.69;88.59;102310.09;4981996;28;20034;-72
2021/03/16 00:59:31;;;;;;;30.40;3.92;;;;;;;5.63;88.17;102303.34;5005729;28;20042;-72
2021/03/16 01:01:57;;;;;;;19.75;3.50;;;;;;;5.70;89.02;102314.44;5019576;28;20045;-69
2021/03/16 01:04:22;;;;;;;26.88;3.60;;;;;;;5.49;88.53;102274.13;5006312;28;20117;-72
2021/03/16 01:06:48;;;;;;;27.48;4.15;;;;;;;5.70;87.90;102316.25;5006454;28;20400;-72
2021/03/16 01:09:13;;;;;;;34.65;4.15;;;;;;;5.60;88.08;102310.59;5007366;28;20385;-69
2021/03/16 01:11:39;;;;;;;27.25;3.72;;;;;;;5.71;88.73;102328.53;5010107;28;20109;-69
2021/03/16 01:14:06;;;;;;;21.20;3.63;;;;;;;5.71;88.06;102333.84;5011167;28;20038;-72
2021/03/16 01:16:31;;;;;;;24.98;4.25;;;;;;;5.62;87.77;102325.47;5011284;28;20038;-70
2021/03/16 01:18:58;;;;;;;25.58;3.50;;;;;;;5.61;88.25;102334.34;5009805;28;20220;-69
2021/03/16 01:21:23;;;;;;;20.77;3.92;;;;;;;5.56;87.92;102327.59;5011016;28;20050;-72
2021/03/16 01:23:49;;;;;;;30.95;3.78;;;;;;;5.56;87.75;102324.94;5010473;28;20030;-72
2021/03/16 01:26:14;;;;;;;31.60;3.75;;;;;;;5.52;88.92;102324.28;5009328;28;20032;-72
2021/03/16 01:28:40;;;;;;;30.60;4.43;;;;;;;5.54;88.73;102322.41;5009485;28;20033;-73
2021/03/16 01:31:05;;;;;;;28.17;4.00;;;;;;;5.46;88.23;102312.22;4991146;28;20042;-73
2021/03/16 01:33:31;;;;;;;32.08;4.00;;;;;;;5.48;88.44;102326.25;4993612;28;20033;-73
2021/03/16 01:35:57;;;;;;;21.65;3.92;;;;;;;5.42;88.76;102318.63;5010855;28;20022;-73
2021/03/16 01:38:22;;;;;;;29.88;3.85;;;;;;;5.35;89.50;102319.91;5009337;28;20041;-73
2021/03/16 01:40:48;;;;;;;29.75;4.05;;;;;;;5.17;89.53;102305.81;5007616;28;20092;-71
2021/03/16 01:43:29;;;;;;;22.10;3.60;;;;;;;5.27;89.21;102325.59;5009278;28;20237;-71
2021/03/16 01:45:54;;;;;;;31.15;4.28;;;;;;;5.19;89.99;102328.66;5007131;28;20025;-72
2021/03/16 01:48:26;;;;;;;25.80;4.28;;;;;;;5.27;90.29;102330.91;5005472;28;21849;-73
2021/03/16 01:50:52;;;;;;;28.92;4.38;;;;;;;5.06;90.17;102303.78;5008449;28;20032;-70
2021/03/16 01:53:18;;;;;;;32.83;4.28;;;;;;;5.18;91.29;102324.28;5011286;28;20034;-72
2021/03/16 01:55:45;;;;;;;24.00;4.43;;;;;;;5.24;91.03;102325.75;4989237;28;20026;-69
2021/03/16 01:58:10;;;;;;;35.60;4.97;;;;;;;5.26;90.68;102328.31;5009532;28;20029;-71
2021/03/16 02:00:43;;;;;;;27.60;3.67;;;;;;;5.27;90.32;102330.91;5009123;28;20041;-72
2021/03/16 02:03:09;;;;;;;32.40;4.63;;;;;;;5.22;90.65;102330.28;5026365;28;20041;-71
2021/03/16 02:05:39;;;;;;;33.47;4.28;;;;;;;5.16;91.49;102330.59;5007377;28;20044;-68
2021/03/16 02:08:29;;;;;;;33.65;3.97;;;;;;;5.10;91.16;102328.28;5007558;28;20121;-72
2021/03/16 02:11:06;;;;;;;36.00;4.38;;;;;;;5.05;90.99;102324.06;5005930;28;20041;-71
2021/03/16 02:13:44;;;;;;;35.47;4.68;;;;;;;5.01;90.89;102321.66;5008804;28;20038;-71
2021/03/16 02:16:14;;;;;;;35.22;4.95;;;;;;;4.94;91.33;102323.78;5006134;28;20065;-71
2021/03/16 02:18:45;;;;;;;36.50;4.13;;;;;;;4.88;91.54;102335.53;5009862;28;20056;-68
2021/03/16 02:21:18;;;;;;;26.98;3.78;;;;;;;4.88;91.70;102332.06;5005590;28;20685;-71
2021/03/16 02:24:10;;;;;;;33.28;4.28;;;;;;;4.82;92.59;102327.91;5008120;28;20069;-72
2021/03/16 02:27:08;;;;;;;25.02;3.67;;;;;;;4.75;92.46;102326.53;5009172;28;20049;-72
2021/03/16 02:30:01;;;;;;;28.60;4.13;;;;;;;4.69;92.45;102327.69;5008434;28;20534;-71
2021/03/16 02:32:29;;;;;;;31.70;3.80;;;;;;;4.67;92.65;102326.91;5002973;28;20040;-72
2021/03/16 02:34:59;;;;;;;26.50;4.85;;;;;;;4.67;92.52;102332.19;5002705;28;20041;-71
2021/03/16 02:37:28;;;;;;;30.10;4.40;;;;;;;4.70;92.47;102333.81;5006801;28;20038;-71
2021/03/16 02:39:55;;;;;;;29.73;3.45;;;;;;;4.73;92.63;102331.91;5004984;28;20451;-71
2021/03/16 02:42:22;;;;;;;32.45;4.88;;;;;;;4.72;92.20;102324.03;5009905;28;20040;-71
2021/03/16 02:44:51;;;;;;;25.60;3.43;;;;;;;4.71;92.45;102324.97;5010293;28;20282;-71
2021/03/16 02:47:19;;;;;;;34.70;4.53;;;;;;;4.69;92.17;102324.19;5009125;28;20452;-71
2021/03/16 02:49:46;;;;;;;32.80;4.05;;;;;;;4.72;92.54;102322.25;5007768;28;20038;-71
2021/03/16 02:52:12;;;;;;;26.80;4.53;;;;;;;4.73;93.34;102331.03;5006361;28;20030;-68
2021/03/16 02:54:39;;;;;;;32.25;3.75;;;;;;;4.71;92.86;102330.25;4990830;28;20049;-69
2021/03/16 02:57:06;;;;;;;36.55;3.50;;;;;;;4.80;93.33;102331.56;4987438;28;20026;-68
2021/03/16 02:59:33;;;;;;;33.15;4.15;;;;;;;4.79;92.95;102327.22;5008198;28;20546;-71
2021/03/16 03:01:59;;;;;;;30.13;4.72;;;;;;;4.80;92.97;102331.56;5009655;28;20038;-71
2021/03/16 03:04:27;;;;;;;31.33;4.78;;;;;;;4.79;93.88;102332.50;5007193;28;20034;-71
2021/03/16 03:06:54;;;;;;;32.85;4.15;;;;;;;4.77;93.71;102334.38;5012201;28;20021;-71
2021/03/16 03:09:19;;;;;;;40.90;4.68;;;;;;;4.78;93.66;102331.66;5008374;28;20057;-69
2021/03/16 03:11:45;;;;;;;34.45;4.20;;;;;;;4.79;94.49;102340.44;5008363;28;20046;-69
2021/03/16 03:14:12;;;;;;;31.33;4.07;;;;;;;4.22;93.70;102241.94;5008299;28;20034;-71
2021/03/16 03:16:38;;;;;;;35.20;3.95;;;;;;;4.83;93.77;102332.25;5008396;28;20045;-73
2021/03/16 03:19:05;;;;;;;41.85;4.30;;;;;;;4.84;94.45;102343.72;5007493;28;20054;-72
2021/03/16 03:21:39;;;;;;;31.02;5.20;;;;;;;4.66;94.47;102324.38;5009903;28;20053;-72
2021/03/16 03:24:08;;;;;;;33.10;4.00;;;;;;;4.82;94.42;102348.22;5008128;28;20045;-72
2021/03/16 03:27:03;;;;;;;29.90;3.95;;;;;;;4.83;94.91;102344.66;5007987;28;20030;-72
2021/03/16 03:29:31;;;;;;;34.80;4.72;;;;;;;4.81;94.78;102355.31;5007758;28;20062;-72
2021/03/16 03:31:57;;;;;;;34.38;4.10;;;;;;;4.66;94.52;102330.50;5009605;28;20125;-72
2021/03/16 03:34:23;;;;;;;37.05;4.68;;;;;;;4.83;94.72;102350.78;5006699;28;20180;-71
2021/03/16 03:36:52;;;;;;;35.65;3.97;;;;;;;4.55;94.53;102301.09;5008333;28;20038;-70
2021/03/16 03:39:21;;;;;;;34.33;3.83;;;;;;;4.88;95.01;102359.34;5007768;28;20029;-71
2021/03/16 03:41:48;;;;;;;34.50;4.20;;;;;;;4.89;94.79;102352.25;5009335;28;20037;-69
2021/03/16 03:44:16;;;;;;;37.30;5.13;;;;;;;4.61;94.66;102311.38;5011124;28;20026;-69
2021/03/16 03:46:42;;;;;;;36.22;4.82;;;;;;;4.92;94.55;102362.69;5005891;28;20480;-69
2021/03/16 03:49:08;;;;;;;31.67;4.68;;;;;;;4.91;95.08;102366.25;5006837;28;20041;-72
2021/03/16 03:51:37;;;;;;;39.83;4.45;;;;;;;4.69;95.24;102326.81;5008034;28;20527;-71
2021/03/16 03:54:05;;;;;;;42.75;5.68;;;;;;;4.99;95.57;102373.81;5006950;28;20026;-69
2021/03/16 03:56:33;;;;;;;31.42;4.50;;;;;;;4.84;94.72;102335.78;5023077;28;20232;-69
2021/03/16 03:59:00;;;;;;;35.70;4.60;;;;;;;4.88;95.00;102347.94;5007598;28;20511;-72
2021/03/16 04:01:29;;;;;;;28.73;3.83;;;;;;;4.66;94.47;102297.91;5024000;28;20076;-72
2021/03/16 04:03:55;;;;;;;32.80;4.07;;;;;;;4.93;95.22;102356.47;5007018;28;20033;-72
2021/03/16 04:06:22;;;;;;;33.10;4.72;;;;;;;5.02;94.55;102377.16;5007527;28;20030;-72
2021/03/16 04:08:50;;;;;;;34.33;4.63;;;;;;;5.12;94.87;102384.63;5008457;28;20032;-71
2021/03/16 04:11:16;;;;;;;40.35;4.80;;;;;;;5.10;95.23;102386.50;5007878;28;20119;-72
2021/03/16 04:13:42;;;;;;;39.90;4.97;;;;;;;5.06;95.22;102391.94;5005575;28;20045;-72
2021/03/16 04:16:07;;;;;;;43.47;5.35;;;;;;;5.05;95.72;102389.38;5007229;28;20105;-71
2021/03/16 04:18:33;;;;;;;31.50;4.88;;;;;;;5.09;95.78;102390.91;5007145;28;20045;-72
2021/03/16 04:20:59;;;;;;;32.67;5.15;;;;;;;5.13;95.49;102391.63;5005177;28;20045;-69
2021/03/16 04:23:25;;;;;;;35.03;4.93;;;;;;;5.19;94.93;102401.88;5006490;28;20553;-69
2021/03/16 04:25:50;;;;;;;37.22;5.03;;;;;;;5.16;95.52;102399.38;5007033;28;20037;-69
2021/03/16 04:28:16;;;;;;;33.85;5.20;;;;;;;5.18;95.24;102397.53;5003868;28;20022;-72
2021/03/16 04:30:41;;;;;;;34.30;4.65;;;;;;;5.05;94.93;102381.44;5007379;28;20038;-69
2021/03/16 04:33:08;;;;;;;47.67;5.03;;;;;;;5.16;95.86;102399.38;5020016;28;20538;-71
2021/03/16 04:35:34;;;;;;;36.95;5.00;;;;;;;5.15;95.79;102398.56;5007342;28;20116;-71
2021/03/16 04:37:59;;;;;;;41.53;6.57;;;;;;;5.16;95.24;102405.56;5004431;28;20029;-72
2021/03/16 04:40:25;;;;;;;38.72;4.93;;;;;;;5.16;95.32;102399.38;5005295;28;20037;-71
2021/03/16 04:42:50;;;;;;;31.90;4.88;;;;;;;5.15;96.00;102395.91;5005643;28;20042;-71
2021/03/16 04:45:16;;;;;;;45.08;5.38;;;;;;;5.19;95.80;102400.13;5005349;28;20056;-68
2021/03/16 04:47:41;;;;;;;40.92;4.82;;;;;;;5.19;95.56;102400.13;5012074;28;20643;-69
2021/03/16 04:50:07;;;;;;;37.85;5.03;;;;;;;5.11;95.42;102396.16;5007250;28;20049;-70
2021/03/16 04:52:33;;;;;;;42.20;4.68;;;;;;;5.19;95.12;102404.53;5007240;28;20112;-71
2021/03/16 04:54:58;;;;;;;40.78;4.30;;;;;;;4.95;95.38;102365.19;5003486;28;20107;-69
2021/03/16 04:57:24;;;;;;;35.45;4.32;;;;;;;5.19;95.25;102413.34;5007334;28;20041;-69
2021/03/16 04:59:49;;;;;;;37.15;4.75;;;;;;;5.19;95.36;102408.06;5007118;28;20033;-72
2021/03/16 05:02:16;;;;;;;34.03;4.65;;;;;;;5.19;95.76;102418.63;5008384;28;20030;-72
2021/03/16 05:04:42;;;;;;;37.45;4.95;;;;;;;4.86;95.03;102357.72;5007538;28;20026;-69
2021/03/16 05:07:07;;;;;;;37.40;4.93;;;;;;;5.20;95.52;102416.84;5007257;28;20042;-69
2021/03/16 05:09:33;;;;;;;38.60;4.45;;;;;;;5.21;94.92;102423.84;5005428;28;20536;-69
2021/03/16 05:11:58;;;;;;;28.83;4.78;;;;;;;5.21;95.59;102426.50;5006486;28;20057;-70
2021/03/16 05:14:24;;;;;;;48.35;4.78;;;;;;;5.09;95.44;102409.44;5005708;28;20030;-72
2021/03/16 05:16:49;;;;;;;30.17;3.78;;;;;;;5.20;94.84;102424.78;5005109;28;20084;-69
2021/03/16 05:19:14;;;;;;;31.75;4.50;;;;;;;5.15;94.83;102416.22;5007614;28;20100;-69
2021/03/16 05:21:41;;;;;;;35.67;4.93;;;;;;;4.94;95.80;102386.44;5007972;28;20049;-69
2021/03/16 05:24:07;;;;;;;34.70;4.65;;;;;;;5.10;95.37;102419.09;5004831;28;20022;-69
2021/03/16 05:26:32;;;;;;;33.08;4.65;;;;;;;5.08;96.52;102425.41;5004296;28;20527;-72
2021/03/16 05:28:57;;;;;;;25.38;4.38;;;;;;;4.89;95.57;102389.28;5002872;28;20053;-72
2021/03/16 05:31:23;;;;;;;37.17;4.30;;;;;;;5.12;96.15;102422.53;5007798;28;20042;-72
2021/03/16 05:33:48;;;;;;;40.10;4.28;;;;;;;5.13;95.39;102408.34;5006448;28;20022;-72
2021/03/16 05:36:14;;;;;;;36.50;4.25;;;;;;;5.22;95.70;102429.03;5005072;28;20034;-72
2021/03/16 05:38:39;;;;;;;33.97;4.82;;;;;;;5.29;94.98;102426.09;5006021;28;20030;-72
2021/03/16 05:41:05;;;;;;;37.65;4.85;;;;;;;5.30;94.77;102422.50;5005987;28;20034;-69
2021/03/16 05:43:31;;;;;;;29.13;4.00;;;;;;;5.29;94.74;102429.63;5007697;28;20065;-69
2021/03/16 05:45:57;;;;;;;31.02;4.32;;;;;;;5.28;94.60;102430.53;4999527;28;20034;-71
2021/03/16 05:48:28;;;;;;;37.05;4.43;;;;;;;5.29;94.84;102432.25;5012325;28;20577;-69
2021/03/16 05:50:54;;;;;;;34.40;4.68;;;;;;;5.30;94.72;102435.75;5004311;28;20100;-71
2021/03/16 05:53:20;;;;;;;44.67;4.70;;;;;;;5.29;95.34;102429.63;5005530;28;20112;-71
2021/03/16 05:55:46;;;;;;;29.00;4.25;;;;;;;5.33;94.14;102436.44;5003059;28;20480;-71
2021/03/16 05:58:12;;;;;;;40.88;4.85;;;;;;;5.29;94.23;102431.38;5010518;28;20746;-72
2021/03/16 06:00:38;;;;;;;30.75;4.30;;;;;;;5.04;94.71;102388.50;4999889;28;20069;-69
2021/03/16 06:03:03;;;;;;;46.83;5.00;;;;;;;5.39;94.57;102439.72;5001056;28;20455;-71
2021/03/16 06:05:29;;;;;;;37.35;5.18;;;;;;;5.33;94.41;102438.25;5008562;28;20385;-69
2021/03/16 06:07:54;;;;;;;25.40;4.43;;;;;;;4.98;94.41;102390.63;5017908;28;20060;-69
2021/03/16 06:10:22;;;;;;;29.45;4.20;;;;;;;5.40;94.25;102441.44;5011188;28;20042;-72
2021/03/16 06:12:47;;;;;;;34.67;4.78;;;;;;;5.36;94.45;102428.34;5010449;28;20049;-69
2021/03/16 06:15:15;;;;;;;32.83;3.90;;;;;;;5.44;94.50;102442.97;5008434;28;20671;-69
2021/03/16 06:17:46;;;;;;;35.72;4.93;;;;;;;5.42;93.91;102435.09;5009760;28;20107;-69
2021/03/16 06:20:23;;;;;;;32.40;5.05;;;;;;;5.42;93.93;102437.75;5008538;28;20053;-72
2021/03/16 06:22:49;;;;;;;31.67;4.20;;;;;;;5.41;94.68;102441.34;4997876;28;20109;-72
2021/03/16 06:25:14;;;;;;;35.70;5.32;;;;;;;5.38;93.94;102438.00;5004101;28;20113;-70
2021/03/16 06:27:40;;;;;;;33.75;4.38;;;;;;;5.36;94.62;102433.63;5005102;28;20073;-69
2021/03/16 06:30:06;;;;;;;38.58;5.25;;;;;;;5.35;94.65;102433.72;4982893;28;20065;-72
2021/03/16 06:32:33;;;;;;;27.50;4.43;;;;;;;5.34;94.65;102435.50;5009682;28;20030;-69
2021/03/16 06:35:00;;;;;;;35.63;4.80;;;;;;;5.35;95.16;102436.38;5006931;28;20022;-69
2021/03/16 06:37:26;;;;;;;32.78;4.45;;;;;;;5.18;95.02;102403.69;4992325;28;20034;-69
2021/03/16 06:39:54;;;;;;;32.05;4.90;;;;;;;5.46;95.00;102438.44;5008438;28;20033;-72
2021/03/16 06:42:27;;;;;;;32.75;4.97;;;;;;;5.48;94.35;102442.75;5010219;28;20041;-72
2021/03/16 06:45:06;;;;;;;33.55;5.15;;;;;;;5.30;94.71;102414.56;5007778;28;20108;-70
2021/03/16 06:47:40;;;;;;;33.42;4.78;;;;;;;5.37;94.37;102418.59;5008937;28;20480;-69
2021/03/16 06:50:06;;;;;;;38.45;5.18;;;;;;;5.33;94.43;102411.78;5021384;28;20481;-72
2021/03/16 06:52:32;;;;;;;34.45;4.93;;;;;;;5.59;94.80;102458.06;4974135;28;20034;-72
2021/03/16 06:55:09;;;;;;;28.85;4.75;;;;;;;5.64;94.32;102461.31;5007194;28;20045;-72
2021/03/16 06:57:35;;;;;;;34.42;5.20;;;;;;;5.65;94.10;102447.16;5007573;28;20065;-72
2021/03/16 07:00:08;;;;;;;29.77;4.97;;;;;;;5.71;94.35;102456.56;5007897;28;20045;-72
2021/03/16 07:02:34;;;;;;;40.25;4.45;;;;;;;5.65;93.72;102425.97;5009444;28;20121;-69
2021/03/16 07:04:59;;;;;;;29.02;4.80;;;;;;;5.90;93.77;102455.59;5020443;28;20109;-69
2021/03/16 07:07:26;;;;;;;33.97;4.63;;;;;;;5.96;93.23;102453.44;5007268;28;21085;-72
2021/03/16 07:09:54;;;;;;;33.75;4.70;;;;;;;5.78;92.94;102415.53;5001107;28;20049;-73
2021/03/16 07:12:21;;;;;;;31.00;4.13;;;;;;;5.96;92.88;102453.44;5002907;28;20400;-72
2021/03/16 07:14:47;;;;;;;34.30;4.18;;;;;;;5.71;93.04;102415.94;5010081;28;20056;-74
2021/03/16 07:17:14;;;;;;;35.22;4.38;;;;;;;5.90;93.19;102444.97;5006929;28;20427;-73
2021/03/16 07:19:44;;;;;;;32.80;4.68;;;;;;;6.04;92.84;102465.44;5006372;28;20668;-73
2021/03/16 07:22:15;;;;;;;33.72;4.47;;;;;;;6.03;93.42;102458.44;5009139;28;20533;-73
2021/03/16 07:24:42;;;;;;;24.60;4.47;;;;;;;6.05;93.13;102460.06;5007958;28;20424;-73
2021/03/16 07:27:08;;;;;;;32.78;4.65;;;;;;;6.05;93.84;102459.22;5009167;28;20040;-73
2021/03/16 07:29:35;;;;;;;28.27;4.13;;;;;;;6.09;93.40;102458.97;4987448;28;20129;-73
2021/03/16 07:32:02;;;;;;;34.17;4.63;;;;;;;6.17;92.92;102468.28;5009695;28;20054;-73
2021/03/16 07:34:29;;;;;;;37.83;5.15;;;;;;;6.19;93.37;102472.56;5008332;28;20053;-74
2021/03/16 07:36:56;;;;;;;34.88;5.40;;;;;;;6.20;93.30;102482.22;5007211;28;20092;-73
2021/03/16 07:39:24;;;;;;;33.88;5.05;;;;;;;6.18;93.04;102472.63;5007942;28;20088;-68
2021/03/16 07:41:51;;;;;;;30.02;4.60;;;;;;;6.32;92.81;102480.69;5006598;28;20022;-74
2021/03/16 07:44:18;;;;;;;38.90;5.35;;;;;;;6.36;92.50;102484.03;5005231;28;20064;-73
2021/03/16 07:46:43;;;;;;;32.00;4.50;;;;;;;6.45;91.99;102488.81;5005701;28;20072;-75
2021/03/16 07:49:11;;;;;;;30.55;4.35;;;;;;;6.43;92.04;102478.31;5007409;28;20030;-74
2021/03/16 07:51:41;;;;;;;25.08;4.55;;;;;;;6.49;91.60;102490.38;5006111;28;20026;-74
2021/03/16 07:54:07;;;;;;;28.20;4.05;;;;;;;6.50;91.59;102480.59;5002954;28;20596;-69
2021/03/16 07:56:35;;;;;;;27.23;4.38;;;;;;;6.52;91.37;102487.53;5003151;28;20176;-69
2021/03/16 07:59:02;;;;;;;32.20;4.68;;;;;;;6.50;91.25;102488.56;5004213;28;20022;-74
2021/03/16 08:01:28;;;;;;;30.23;4.47;;;;;;;6.12;91.19;102424.34;5001230;28;20794;-74
2021/03/16 08:04:04;;;;;;;29.92;4.15;;;;;;;6.63;90.52;102489.59;5009002;28;20113;-73
2021/03/16 08:06:31;;;;;;;35.30;5.03;;;;;;;6.62;90.51;102485.22;5002853;28;20030;-74
2021/03/16 08:08:57;;;;;;;30.98;3.75;;;;;;;6.62;90.60;102487.88;5004890;28;20026;-68
2021/03/16 08:11:22;;;;;;;34.47;4.32;;;;;;;6.40;90.15;102438.69;5008561;28;20022;-69
2021/03/16 08:13:59;;;;;;;23.25;3.97;;;;;;;6.77;90.17;102477.31;5003953;28;20045;-68
2021/03/16 08:16:39;;;;;;;40.38;5.03;;;;;;;6.89;90.08;102487.22;5005563;28;20622;-74
2021/03/16 08:19:07;;;;;;;28.70;4.38;;;;;;;6.97;89.17;102492.97;5003870;28;20046;-73
2021/03/16 08:21:35;;;;;;;;;;;;;;;6.98;88.69;102494.69;5008414;28;20034;-74
2021/03/16 08:24:09;;;;;;;20.73;3.60;;;;;;;6.83;88.65;102451.28;5006832;28;19913;-69
2021/03/16 08:26:54;;;;;;;27.08;4.28;;;;;;;7.09;88.24;102499.34;5001037;28;20041;-69
2021/03/16 08:29:27;;;;;;;30.92;4.20;;;;;;;7.12;87.83;102493.88;5005380;28;20099;-74
2021/03/16 08:31:55;;;;;;;25.27;3.65;;;;;;;7.18;87.71;102497.97;5008479;28;20030;-74
2021/03/16 08:34:22;;;;;;;25.53;3.63;;;;;;;7.15;87.00;102498.13;5004735;28;20030;-69
2021/03/16 08:36:48;;;;;;;27.38;3.88;;;;;;;7.19;87.30;102497.00;4988771;28;20050;-69
2021/03/16 08:39:20;;;;;;;26.15;3.97;;;;;;;7.19;87.08;102504.97;5006402;28;20447;-69
2021/03/16 08:42:01;;;;;;;29.85;3.90;;;;;;;7.29;86.25;102506.13;5006948;28;20506;-69
2021/03/16 08:44:31;;;;;;;26.35;3.88;;;;;;;7.29;86.36;102508.78;5004389;28;20053;-74
2021/03/16 08:47:09;;;;;;;33.88;4.55;;;;;;;7.22;86.36;102522.53;4997432;28;20180;-73
2021/03/16 08:49:39;;;;;;;34.00;3.95;;;;;;;7.20;86.51;102512.00;5001874;28;20026;-73
2021/03/16 08:52:14;;;;;;;27.38;3.63;;;;;;;7.27;85.77;102518.66;5019531;28;20024;-73
2021/03/16 08:54:40;;;;;;;25.55;3.28;;;;;;;7.32;85.63;102521.06;5002777;28;20037;-69
2021/03/16 08:57:06;;;;;;;19.45;4.03;;;;;;;7.23;84.80;102497.69;5003095;28;20034;-69
2021/03/16 08:59:32;;;;;;;22.13;3.47;;;;;;;7.47;84.56;102524.59;5000045;28;20042;-70
2021/03/16 09:01:57;;;;;;;26.40;3.78;;;;;;;7.54;84.28;102517.94;5002074;28;20041;-69
2021/03/16 09:04:23;;;;;;;21.33;3.28;;;;;;;7.51;85.13;102529.63;5001504;28;20037;-69
2021/03/16 09:06:50;;;;;;;23.50;3.35;;;;;;;7.32;85.54;102492.69;5000975;28;20452;-74
2021/03/16 09:09:23;;;;;;;22.95;3.67;;;;;;;7.63;86.58;102524.53;5003791;28;20026;-75
2021/03/16 09:11:49;;;;;;;27.17;3.05;;;;;;;7.62;86.70;102530.78;5003604;28;20017;-74
2021/03/16 09:14:16;;;;;;;22.63;3.95;;;;;;;7.71;86.06;102532.03;5003982;28;20104;-75
2021/03/16 09:16:45;;;;;;;30.63;4.50;;;;;;;7.82;86.54;102530.44;5002437;28;20034;-75
2021/03/16 09:19:17;;;;;;;22.98;4.00;;;;;;;7.93;85.91;102536.91;5001839;28;20049;-74
2021/03/16 09:22:01;;;;;;;27.35;3.20;;;;;;;7.84;84.17;102506.41;5001900;28;20046;-74
2021/03/16 09:24:28;;;;;;;27.88;3.83;;;;;;;7.95;83.82;102514.56;5001711;28;20034;-75
2021/03/16 09:27:07;;;;;;;23.52;3.30;;;;;;;7.92;84.25;102519.22;5000055;28;20061;-75
2021/03/16 09:29:36;;;;;;;13.70;3.03;;;;;;;7.81;84.34;102522.53;5003270;28;20083;-75
2021/03/16 09:32:08;;;;;;;15.93;3.15;;;;;;;7.38;86.20;102477.34;5004117;28;20046;-74
2021/03/16 09:34:36;;;;;;;14.80;2.50;;;;;;;7.62;85.82;102517.50;5002050;28;20066;-75
2021/03/16 09:37:10;;;;;;;16.95;2.95;;;;;;;7.00;85.62;102414.94;5001719;28;20026;-74
2021/03/16 09:39:37;;;;;;;13.57;2.70;;;;;;;7.62;85.22;102523.69;4993941;28;20045;-74
2021/03/16 09:42:05;;;;;;;19.15;3.50;;;;;;;7.62;84.91;102507.75;4998412;28;21004;-74
2021/03/16 09:44:34;;;;;;;16.45;2.88;;;;;;;7.60;84.72;102512.28;5002727;28;20042;-74
2021/03/16 09:47:00;;;;;;;12.27;2.38;;;;;;;7.45;84.75;102494.59;5000862;28;20385;-73
2021/03/16 09:49:40;;;;;;;11.73;2.35;;;;;;;7.71;83.75;102521.41;5003101;28;20026;-74
2021/03/16 09:52:10;;;;;;;14.00;2.85;;;;;;;7.65;85.36;102522.63;5004870;28;20018;-74
2021/03/16 09:54:38;;;;;;;13.10;2.85;;;;;;;7.77;85.01;102521.88;4999896;28;20396;-74
2021/03/16 09:57:05;;;;;;;17.95;3.45;;;;;;;7.88;84.03;102525.69;5009046;28;20129;-74
2021/03/16 09:59:45;;;;;;;16.77;2.55;;;;;;;7.94;83.73;102523.50;4999603;28;20099;-74
2021/03/16 10:02:12;;;;;;;12.90;2.40;;;;;;;7.84;85.13;102532.16;5013886;28;20021;-74
2021/03/16 10:04:45;;;;;;;18.52;2.85;;;;;;;7.51;85.89;102489.78;4999449;28;20095;-74
2021/03/16 10:07:11;;;;;;;15.13;2.83;;;;;;;7.28;86.41;102451.31;4995040;28;20048;-69
2021/03/16 10:09:40;;;;;;;15.80;3.20;;;;;;;7.84;85.91;102526.84;4990473;28;20061;-69
2021/03/16 10:12:17;;;;;;;19.70;2.45;;;;;;;7.86;86.16;102520.47;4995329;28;20077;-74
2021/03/16 10:14:43;;;;;;;14.05;2.25;;;;;;;7.90;85.23;102519.34;5000800;28;20080;-72
2021/03/16 10:17:09;;;;;;;25.60;2.67;;;;;;;7.94;85.39;102518.19;4999138;28;20381;-72
2021/03/16 10:19:35;;;;;;;14.07;2.80;;;;;;;8.04;83.71;102522.94;4995964;28;20551;-72
2021/03/16 10:22:11;;;;;;;10.55;2.50;;;;;;;8.15;82.16;102517.81;4993772;28;20053;-72
2021/03/16 10:24:36;;;;;;;14.30;2.33;;;;;;;7.97;82.65;102471.97;4992360;28;20041;-72
2021/03/16 10:27:01;;;;;;;13.98;2.40;;;;;;;8.00;82.90;102492.19;4995497;28;20037;-74
2021/03/16 10:29:27;;;;;;;17.85;3.15;;;;;;;7.84;82.38;102479.00;4994999;28;20506;-77
2021/03/16 10:31:53;;;;;;;9.90;2.35;;;;;;;7.92;81.74;102508.59;4993024;28;20033;-73
2021/03/16 10:34:19;;;;;;;15.27;2.17;;;;;;;7.94;81.24;102514.69;4996921;28;20030;-74
2021/03/16 10:36:45;;;;;;;14.98;2.28;;;;;;;7.93;80.97;102515.63;5000776;28;21123;-71
2021/03/16 10:39:11;;;;;;;11.18;2.08;;;;;;;7.51;81.71;102484.47;5003088;28;20040;-72
2021/03/16 10:41:36;;;;;;;8.88;2.00;;;;;;;7.75;81.30;102486.56;4985564;28;20038;-74
2021/03/16 10:44:02;;;;;;;15.88;2.33;;;;;;;8.01;80.04;102513.34;4982858;28;20042;-74
2021/03/16 10:46:27;;;;;;;12.07;2.20;;;;;;;7.99;80.88;102509.06;5006884;28;20061;-74
2021/03/16 10:48:53;;;;;;;14.13;1.95;;;;;;;7.89;80.96;102507.00;5004427;28;20033;-73
2021/03/16 10:51:18;;;;;;;11.55;2.10;;;;;;;7.92;81.27;102516.56;5005802;28;20441;-73
2021/03/16 10:53:44;;;;;;;12.00;2.15;;;;;;;7.80;81.18;102519.03;5007239;28;20030;-74
2021/03/16 10:56:09;;;;;;;9.88;1.60;;;;;;;7.68;82.84;102513.59;5003800;28;20096;-73
2021/03/16 10:58:35;;;;;;;6.63;1.67;;;;;;;7.76;83.45;102516.69;5023088;28;20042;-72
2021/03/16 11:01:00;;;;;;;11.02;1.83;;;;;;;7.99;83.09;102517.94;5004493;28;20548;-72
2021/03/16 11:03:26;;;;;;;8.80;2.30;;;;;;;8.02;83.54;102519.53;5006770;28;20038;-73
2021/03/16 11:05:51;;;;;;;11.57;1.83;;;;;;;7.96;83.12;102512.78;5003195;28;20038;-73
2021/03/16 11:08:17;;;;;;;7.03;2.00;;;;;;;7.94;83.57;102515.53;5004462;28;20234;-73
2021/03/16 11:10:42;;;;;;;5.97;2.13;;;;;;;7.90;82.88;102523.78;5020697;28;20416;-68
2021/03/16 11:13:08;;;;;;;5.53;1.60;;;;;;;7.62;81.84;102478.50;5002402;28;20026;-70
2021/03/16 11:15:34;;;;;;;5.07;1.27;;;;;;;7.88;81.57;102525.69;5003546;28;20087;-71
2021/03/16 11:17:59;;;;;;;7.10;1.88;;;;;;;7.85;81.54;102524.06;5005734;28;20487;-71
2021/03/16 11:20:25;;;;;;;5.32;1.40;;;;;;;7.77;82.67;102516.56;5001177;28;20061;-71
2021/03/16 11:22:51;;;;;;;10.13;1.83;;;;;;;7.76;81.31;102522.00;5001727;28;20120;-71
2021/03/16 11:25:16;;;;;;;7.03;1.65;;;;;;;7.82;81.90;102521.59;5016605;28;20030;-72
2021/03/16 11:27:42;;;;;;;8.27;1.80;;;;;;;7.77;82.29;102513.06;4998534;28;20029;-72
2021/03/16 11:30:08;;;;;;;8.07;2.03;;;;;;;7.77;82.80;102507.75;4997796;28;20041;-72